createdAt,value
2022-12-19T00:00:53.387Z,47.8
2022-12-19T00:02:10.493Z,48.1
2022-12-19T00:03:27.598Z,47.2
2022-12-19T00:04:43.720Z,47.6
2022-12-19T00:06:00.825Z,47.3
2022-12-19T00:07:17.931Z,49.6
2022-12-19T00:08:35.037Z,46.2
2022-12-19T00:09:52.142Z,46.8
2022-12-19T00:11:09.248Z,46.7
2022-12-19T00:12:26.353Z,47
2022-12-19T00:13:42.480Z,59.1
2022-12-19T00:14:58.602Z,47
2022-12-19T00:16:14.729Z,47
2022-12-19T00:17:30.850Z,47
2022-12-19T00:18:47.956Z,47.2
2022-12-19T00:20:05.061Z,46.8
2022-12-19T00:21:22.167Z,46.7
2022-12-19T00:22:39.272Z,57
2022-12-19T00:23:56.378Z,45.9
2022-12-19T00:25:13.483Z,45.7
2022-12-19T00:26:30.589Z,46.4
2022-12-19T00:27:47.694Z,47.2
2022-12-19T00:29:04.799Z,71
2022-12-19T00:30:21.905Z,46.7
2022-12-19T00:31:39.010Z,47
2022-12-19T00:32:56.116Z,46.2
2022-12-19T00:34:12.238Z,45.9
2022-12-19T00:35:29.343Z,47.5
2022-12-19T00:36:46.449Z,47
2022-12-19T00:38:03.554Z,55.1
2022-12-19T00:39:20.660Z,46.5
2022-12-19T00:40:37.765Z,52.8
2022-12-19T00:41:54.871Z,58.4
2022-12-19T00:43:10.998Z,45.9
2022-12-19T00:44:27.119Z,46.4
2022-12-19T00:45:43.246Z,46.2
2022-12-19T00:46:59.368Z,45.9
2022-12-19T00:48:16.473Z,45.6
2022-12-19T00:49:33.579Z,45.9
2022-12-19T00:50:50.684Z,47.8
2022-12-19T00:52:07.790Z,47
2022-12-19T00:53:24.895Z,56.3
2022-12-19T00:54:42.000Z,47.6
2022-12-19T00:55:59.106Z,46.2
2022-12-19T00:57:16.211Z,46.2
2022-12-19T00:58:33.316Z,47.2
2022-12-19T00:59:50.422Z,45.6
2022-12-19T01:01:07.527Z,45.9
2022-12-19T01:02:24.633Z,45.6
2022-12-19T01:03:40.754Z,56
2022-12-19T01:04:57.860Z,46.5
2022-12-19T01:06:14.965Z,45.9
2022-12-19T01:07:32.070Z,53.4
2022-12-19T01:08:49.177Z,47.2
2022-12-19T01:10:06.282Z,51.8
2022-12-19T01:11:23.388Z,46.8
2022-12-19T01:12:39.515Z,46.7
2022-12-19T01:13:55.636Z,45.6
2022-12-19T01:15:11.763Z,45.7
2022-12-19T01:16:27.884Z,45.2
2022-12-19T01:17:44.990Z,46.2
2022-12-19T01:19:02.095Z,46.4
2022-12-19T01:20:19.201Z,45.7
2022-12-19T01:21:36.306Z,45.9
2022-12-19T01:22:53.411Z,46.8
2022-12-19T01:24:10.517Z,45.7
2022-12-19T01:25:27.622Z,47.8
2022-12-19T01:26:44.728Z,46.8
2022-12-19T01:28:01.833Z,46.7
2022-12-19T01:29:18.938Z,46.8
2022-12-19T01:30:36.043Z,46.5
2022-12-19T01:31:53.149Z,47
2022-12-19T01:33:09.270Z,46.2
2022-12-19T01:34:26.375Z,45.9
2022-12-19T01:35:43.481Z,46.2
2022-12-19T01:37:00.586Z,46.4
2022-12-19T01:38:17.692Z,46.2
2022-12-19T01:39:34.797Z,46.2
2022-12-19T01:40:51.903Z,46
2022-12-19T01:42:08.029Z,45.6
2022-12-19T01:43:24.151Z,46.4
2022-12-19T01:44:40.277Z,46.5
2022-12-19T01:45:56.399Z,46.7
2022-12-19T01:47:13.504Z,46.8
2022-12-19T01:48:30.610Z,46.7
2022-12-19T01:49:47.715Z,59.7
2022-12-19T01:52:21.927Z,46.5
2022-12-19T01:53:39.032Z,47.8
2022-12-19T01:54:56.138Z,46.2
2022-12-19T01:56:13.243Z,45.9
2022-12-19T01:57:30.348Z,48.9
2022-12-19T01:58:47.454Z,45.6
2022-12-19T02:00:04.559Z,63.1
2022-12-19T02:01:21.665Z,54.3
2022-12-19T02:02:37.786Z,45.1
2022-12-19T02:03:54.891Z,46.2
2022-12-19T02:05:11.997Z,46
2022-12-19T02:06:29.102Z,45.4
2022-12-19T02:07:46.207Z,44.9
2022-12-19T02:09:03.313Z,46.7
2022-12-19T02:10:20.418Z,45.9
2022-12-19T02:11:37.523Z,45.2
2022-12-19T02:12:53.650Z,44.7
2022-12-19T02:14:09.771Z,44.6
2022-12-19T02:15:25.898Z,49.3
2022-12-19T02:16:42.019Z,45.7
2022-12-19T02:17:59.124Z,46
2022-12-19T02:19:16.229Z,47.2
2022-12-19T02:20:33.335Z,45.6
2022-12-19T02:21:50.440Z,45.1
2022-12-19T02:23:07.545Z,45.1
2022-12-19T02:24:24.651Z,47.8
2022-12-19T02:25:41.756Z,46.5
2022-12-19T02:26:58.861Z,47.3
2022-12-19T02:28:15.966Z,50.5
2022-12-19T02:29:33.072Z,45.9
2022-12-19T02:30:50.177Z,45.9
2022-12-19T02:32:07.282Z,47.5
2022-12-19T02:33:23.404Z,46.4
2022-12-19T02:34:40.509Z,49.1
2022-12-19T02:35:57.614Z,46.4
2022-12-19T02:37:14.719Z,58.9
2022-12-19T02:38:31.825Z,47.2
2022-12-19T02:39:48.930Z,47.6
2022-12-19T02:41:06.035Z,47.8
2022-12-19T02:42:22.162Z,54.3
2022-12-19T02:43:38.283Z,49.1
2022-12-19T02:44:55.388Z,74.1
2022-12-19T02:46:11.515Z,45.7
2022-12-19T02:47:27.636Z,47.2
2022-12-19T02:48:44.743Z,46.7
2022-12-19T02:50:01.848Z,67.9
2022-12-19T02:51:18.953Z,50.4
2022-12-19T02:52:36.059Z,48.8
2022-12-19T02:53:52.180Z,46.4
2022-12-19T02:55:09.285Z,50.4
2022-12-19T02:57:43.496Z,53
2022-12-19T02:59:00.601Z,58.6
2022-12-19T03:00:17.707Z,47.8
2022-12-19T03:01:34.812Z,47.3
2022-12-19T03:02:51.917Z,50.4
2022-12-19T03:04:09.022Z,49.6
2022-12-19T03:05:26.128Z,59.7
2022-12-19T03:06:43.234Z,62.1
2022-12-19T03:08:00.339Z,54.6
2022-12-19T03:09:17.445Z,50.2
2022-12-19T03:10:33.566Z,62.1
2022-12-19T03:11:50.672Z,57.6
2022-12-19T03:13:07.777Z,56.3
2022-12-19T03:14:23.904Z,46.7
2022-12-19T03:15:40.025Z,48.9
2022-12-19T03:16:57.131Z,48.8
2022-12-19T03:18:13.257Z,49.4
2022-12-19T03:19:29.379Z,52.5
2022-12-19T03:20:46.484Z,55.4
2022-12-19T03:22:03.589Z,58.1
2022-12-19T03:23:20.694Z,68.3
2022-12-19T03:24:37.798Z,48.5
2022-12-19T03:25:54.903Z,48
2022-12-19T03:27:12.008Z,60.2
2022-12-19T03:28:29.114Z,48.9
2022-12-19T03:29:46.219Z,53.3
2022-12-19T03:31:03.324Z,53.3
2022-12-19T03:32:20.430Z,52.3
2022-12-19T03:33:37.535Z,54.9
2022-12-19T03:34:54.640Z,47.8
2022-12-19T03:36:10.761Z,73.3
2022-12-19T03:37:27.867Z,53.4
2022-12-19T03:40:02.077Z,64.2
2022-12-19T03:41:19.182Z,47.5
2022-12-19T03:42:36.288Z,50.7
2022-12-19T03:43:53.394Z,59.2
2022-12-19T03:45:10.499Z,61
2022-12-19T03:46:26.624Z,53.1
2022-12-19T03:47:42.745Z,69.1
2022-12-19T03:48:58.872Z,64.7
2022-12-19T03:50:14.993Z,59.9
2022-12-19T03:51:32.098Z,48.5
2022-12-19T03:52:49.204Z,56.5
2022-12-19T03:54:06.309Z,56.7
2022-12-19T03:55:23.415Z,66.7
2022-12-19T03:56:40.520Z,59.4
2022-12-19T03:57:57.625Z,58.8
2022-12-19T03:59:14.730Z,50.4
2022-12-19T04:00:31.836Z,54.1
2022-12-19T04:01:48.941Z,62.6
2022-12-19T04:03:06.047Z,50.4
2022-12-19T04:04:23.152Z,74.6
2022-12-19T04:05:40.257Z,50.9
2022-12-19T04:06:56.378Z,58.4
2022-12-19T04:08:13.484Z,58.3
2022-12-19T04:09:30.589Z,66.3
2022-12-19T04:10:47.694Z,53.4
2022-12-19T04:12:04.799Z,69.7
2022-12-19T04:13:21.905Z,61.5
2022-12-19T04:14:39.010Z,58.6
2022-12-19T04:15:55.137Z,62.5
2022-12-19T04:17:11.258Z,70
2022-12-19T04:18:28.363Z,61.2
2022-12-19T04:19:44.490Z,50.4
2022-12-19T04:21:00.611Z,57.3
2022-12-19T04:22:17.717Z,64.9
2022-12-19T04:23:34.822Z,69.4
2022-12-19T04:24:51.927Z,61.2
2022-12-19T04:26:09.032Z,60.5
2022-12-19T04:27:26.138Z,68.1
2022-12-19T04:28:43.243Z,67.9
2022-12-19T04:30:00.348Z,69.2
2022-12-19T04:31:17.454Z,71.5
2022-12-19T04:32:34.559Z,61.5
2022-12-19T04:33:51.665Z,65.5
2022-12-19T04:35:08.770Z,63.4
2022-12-19T04:36:25.875Z,68.1
2022-12-19T04:37:41.997Z,63.6
2022-12-19T04:38:59.102Z,69.1
2022-12-19T04:40:16.207Z,61.7
2022-12-19T04:41:33.313Z,70.5
2022-12-19T04:42:50.418Z,71.8
2022-12-19T04:44:07.523Z,60.7
2022-12-19T04:45:24.628Z,67.1
2022-12-19T04:46:40.755Z,56.2
2022-12-19T04:47:56.876Z,58.3
2022-12-19T04:49:13.982Z,73.4
2022-12-19T04:50:31.087Z,61.3
2022-12-19T04:51:48.192Z,56.5
2022-12-19T04:53:05.298Z,60.2
2022-12-19T04:54:22.403Z,53.9
2022-12-19T04:55:39.509Z,68.4
2022-12-19T04:56:56.614Z,59.2
2022-12-19T04:58:13.719Z,67.9
2022-12-19T04:59:30.824Z,64.9
2022-12-19T05:00:47.929Z,61.7
2022-12-19T05:02:05.035Z,73.3
2022-12-19T05:03:22.140Z,70.4
2022-12-19T05:04:38.262Z,67.8
2022-12-19T05:05:55.368Z,65.7
2022-12-19T05:08:29.578Z,53.3
2022-12-19T05:09:46.684Z,66.2
2022-12-19T05:11:03.789Z,64.6
2022-12-19T05:12:20.894Z,66.5
2022-12-19T05:13:38.000Z,52.5
2022-12-19T05:14:54.126Z,65.4
2022-12-19T05:16:10.248Z,60.5
2022-12-19T05:17:26.374Z,55.2
2022-12-19T05:18:42.496Z,63.1
2022-12-19T05:19:58.622Z,70.5
2022-12-19T05:21:14.744Z,67.5
2022-12-19T05:22:31.849Z,67.6
2022-12-19T05:23:48.954Z,63.1
2022-12-19T05:25:06.059Z,65.4
2022-12-19T05:26:23.165Z,54.7
2022-12-19T05:27:40.270Z,66.8
2022-12-19T05:28:57.375Z,63.1
2022-12-19T05:30:14.480Z,63
2022-12-19T05:31:31.586Z,62.3
2022-12-19T05:32:48.691Z,61.7
2022-12-19T05:34:05.796Z,62
2022-12-19T05:35:22.901Z,63.3
2022-12-19T05:36:40.007Z,65.7
2022-12-19T05:37:56.128Z,69.4
2022-12-19T05:39:13.233Z,64.6
2022-12-19T05:40:30.339Z,72.3
2022-12-19T05:41:47.444Z,66.3
2022-12-19T05:43:04.549Z,58.8
2022-12-19T05:44:21.654Z,63.3
2022-12-19T05:45:38.760Z,69.6
2022-12-19T05:46:54.887Z,59.7
2022-12-19T05:48:11.008Z,68.9
2022-12-19T05:49:28.113Z,65.2
2022-12-19T05:50:45.219Z,65.5
2022-12-19T05:52:01.343Z,65.5
2022-12-19T05:53:17.465Z,65.7
2022-12-19T05:54:34.570Z,67.9
2022-12-19T05:55:51.676Z,68.9
2022-12-19T05:57:08.781Z,67.5
2022-12-19T05:58:25.886Z,64.2
2022-12-19T05:59:42.992Z,65.4
2022-12-19T06:01:00.097Z,62.6
2022-12-19T06:02:17.203Z,74.9
2022-12-19T06:03:34.308Z,69.1
2022-12-19T06:04:51.413Z,68.6
2022-12-19T06:06:08.519Z,66
2022-12-19T06:07:25.624Z,71.5
2022-12-19T06:08:42.729Z,70.5
2022-12-19T06:09:58.851Z,64.7
2022-12-19T06:11:15.956Z,63.6
2022-12-19T06:12:33.062Z,73.3
2022-12-19T06:13:50.167Z,62
2022-12-19T06:15:07.272Z,71.8
2022-12-19T06:16:24.377Z,64.2
2022-12-19T06:17:41.483Z,68.6
2022-12-19T06:18:57.609Z,66.7
2022-12-19T06:20:13.730Z,68.9
2022-12-19T06:21:30.836Z,68.4
2022-12-19T06:22:47.941Z,72
2022-12-19T06:25:22.152Z,69.7
2022-12-19T06:26:39.258Z,67
2022-12-19T06:27:56.363Z,72.9
2022-12-19T06:29:13.468Z,66.7
2022-12-19T06:30:30.573Z,67.9
2022-12-19T06:31:47.679Z,65.4
2022-12-19T06:33:04.784Z,68.1
2022-12-19T06:34:21.890Z,64.1
2022-12-19T06:35:38.995Z,65.9
2022-12-19T06:36:55.116Z,70
2022-12-19T06:38:12.222Z,64.7
2022-12-19T06:39:29.327Z,72
2022-12-19T06:40:46.432Z,67.5
2022-12-19T06:42:03.538Z,68.9
2022-12-19T06:43:20.643Z,66.2
2022-12-19T06:44:37.748Z,67.8
2022-12-19T06:45:54.853Z,67.9
2022-12-19T06:47:10.980Z,70
2022-12-19T06:48:27.101Z,67.5
2022-12-19T06:49:43.228Z,68.1
2022-12-19T06:50:59.349Z,65.5
2022-12-19T06:52:15.476Z,68.4
2022-12-19T06:53:31.597Z,68.6
2022-12-19T06:54:48.703Z,70
2022-12-19T06:56:05.808Z,65.2
2022-12-19T06:57:22.913Z,57.2
2022-12-19T06:58:40.018Z,65.7
2022-12-19T06:59:57.123Z,72.1
2022-12-19T07:01:14.229Z,65.2
2022-12-19T07:02:31.334Z,67.8
2022-12-19T07:03:48.439Z,75
2022-12-19T07:05:05.544Z,66
2022-12-19T07:06:22.650Z,66
2022-12-19T07:07:39.755Z,65.9
2022-12-19T07:08:56.860Z,63.4
2022-12-19T07:10:12.981Z,71.5
2022-12-19T07:11:29.103Z,69.2
2022-12-19T07:12:46.208Z,72.6
2022-12-19T07:14:03.313Z,63.1
2022-12-19T07:15:20.419Z,68.6
2022-12-19T07:16:37.524Z,67
2022-12-19T07:19:11.734Z,65
2022-12-19T07:20:27.861Z,66.2
2022-12-19T07:21:43.982Z,60.2
2022-12-19T07:23:00.108Z,64.7
2022-12-19T07:24:16.230Z,60.7
2022-12-19T07:25:33.335Z,66.7
2022-12-19T07:26:50.440Z,67.8
2022-12-19T07:28:07.545Z,69.9
2022-12-19T07:29:24.650Z,72.3
2022-12-19T07:30:41.755Z,66
2022-12-19T07:31:58.861Z,64.9
2022-12-19T07:33:15.966Z,69.9
2022-12-19T07:34:33.071Z,68.8
2022-12-19T07:35:50.176Z,67
2022-12-19T07:37:07.282Z,67.8
2022-12-19T07:38:24.387Z,71.5
2022-12-19T07:39:41.492Z,63.9
2022-12-19T07:40:57.613Z,65.7
2022-12-19T07:42:14.718Z,63.9
2022-12-19T07:43:31.824Z,67.1
2022-12-19T07:44:48.929Z,69.7
2022-12-19T07:46:06.034Z,64.9
2022-12-19T07:47:23.140Z,63.6
2022-12-19T07:48:40.245Z,66.3
2022-12-19T07:49:56.371Z,65
2022-12-19T07:51:12.492Z,64.9
2022-12-19T07:52:29.598Z,67
2022-12-19T07:53:45.724Z,66.3
2022-12-19T07:55:01.845Z,64.9
2022-12-19T07:56:18.950Z,70.2
2022-12-19T07:57:36.055Z,68.4
2022-12-19T07:58:53.161Z,63.1
2022-12-19T08:00:10.266Z,70.8
2022-12-19T08:01:27.371Z,60.9
2022-12-19T08:02:44.476Z,65.9
2022-12-19T08:04:01.581Z,68.4
2022-12-19T08:05:18.686Z,68.4
2022-12-19T08:06:35.791Z,71
2022-12-19T08:07:52.896Z,68.4
2022-12-19T08:09:10.001Z,69.7
2022-12-19T08:10:27.107Z,68.4
2022-12-19T08:11:43.228Z,73.3
2022-12-19T08:13:00.333Z,67.5
2022-12-19T08:14:17.438Z,70.2
2022-12-19T08:15:34.543Z,66.3
2022-12-19T08:16:51.648Z,66.3
2022-12-19T08:18:08.753Z,62.3
2022-12-19T08:19:25.858Z,68.6
2022-12-19T08:20:41.985Z,69.4
2022-12-19T08:21:58.106Z,63
2022-12-19T08:23:15.210Z,64.2
2022-12-19T08:24:32.316Z,67.5
2022-12-19T08:25:48.442Z,64.6
2022-12-19T08:27:04.563Z,69.9
2022-12-19T08:28:21.668Z,71
2022-12-19T08:29:38.773Z,62.6
2022-12-19T08:30:55.878Z,72.3
2022-12-19T08:32:12.983Z,61.2
2022-12-19T08:33:30.088Z,65.7
2022-12-19T08:34:47.193Z,65.9
2022-12-19T08:36:04.297Z,70.2
2022-12-19T08:37:21.403Z,70.4
2022-12-19T08:38:38.508Z,68.8
2022-12-19T08:39:55.613Z,58.8
2022-12-19T08:41:12.717Z,67.3
2022-12-19T08:42:29.822Z,67.9
2022-12-19T08:43:46.927Z,66.3
2022-12-19T08:45:03.048Z,68.9
2022-12-19T08:46:20.153Z,70.4
2022-12-19T08:47:37.258Z,68.6
2022-12-19T08:48:54.363Z,64.4
2022-12-19T08:50:11.468Z,64.7
2022-12-19T08:51:28.573Z,63.9
2022-12-19T08:52:44.699Z,65.4
2022-12-19T08:54:00.820Z,66.2
2022-12-19T08:55:16.946Z,67.5
2022-12-19T08:56:33.067Z,67.5
2022-12-19T08:57:50.172Z,68.9
2022-12-19T08:59:07.277Z,67
2022-12-19T09:00:24.381Z,70.2
2022-12-19T09:01:41.486Z,70.7
2022-12-19T09:02:58.591Z,67.5
2022-12-19T09:04:15.696Z,73.9
2022-12-19T09:05:32.802Z,65.7
2022-12-19T09:06:49.906Z,69.4
2022-12-19T09:08:07.011Z,65
2022-12-19T09:09:24.116Z,71.3
2022-12-19T09:10:41.221Z,70.2
2022-12-19T09:11:58.326Z,68.1
2022-12-19T09:13:14.447Z,56.8
2022-12-19T09:14:31.552Z,64.4
2022-12-19T09:15:48.657Z,66.2
2022-12-19T09:17:05.762Z,64.1
2022-12-19T09:18:22.867Z,65.9
2022-12-19T09:19:39.972Z,65.9
2022-12-19T09:20:57.077Z,64.9
2022-12-19T09:22:13.203Z,64.6
2022-12-19T09:23:29.324Z,62.6
2022-12-19T09:24:46.429Z,68.3
2022-12-19T09:26:03.534Z,67.5
2022-12-19T09:27:19.661Z,67.8
2022-12-19T09:28:35.782Z,67.1
2022-12-19T09:29:52.887Z,63.4
2022-12-19T09:31:09.992Z,68.8
2022-12-19T09:32:27.097Z,68.9
2022-12-19T09:33:44.202Z,70.2
2022-12-19T09:35:01.307Z,62.5
2022-12-19T09:36:18.412Z,69.7
2022-12-19T09:37:35.517Z,69.2
2022-12-19T09:38:52.623Z,60.9
2022-12-19T09:40:09.727Z,63.3
2022-12-19T09:41:26.833Z,70.4
2022-12-19T09:42:43.938Z,67.6
2022-12-19T09:44:01.043Z,67.6
2022-12-19T09:45:17.164Z,64.4
2022-12-19T09:46:34.268Z,68.8
2022-12-19T09:47:51.373Z,65.9
2022-12-19T09:49:08.478Z,68.6
2022-12-19T09:50:25.583Z,68.4
2022-12-19T09:51:42.688Z,66
2022-12-19T09:52:59.793Z,65.4
2022-12-19T09:54:15.919Z,61.7
2022-12-19T09:55:32.041Z,82.9
2022-12-19T09:56:48.167Z,65.9
2022-12-19T09:58:04.288Z,63.4
2022-12-19T09:59:21.393Z,65.9
2022-12-19T10:00:38.498Z,64.9
2022-12-19T10:01:55.603Z,67.1
2022-12-19T10:03:12.708Z,66.3
2022-12-19T10:04:29.813Z,60.1
2022-12-19T10:05:46.918Z,66.7
2022-12-19T10:07:04.023Z,67
2022-12-19T10:08:21.128Z,70.7
2022-12-19T10:09:38.233Z,63
2022-12-19T10:10:55.338Z,71.5
2022-12-19T10:12:12.443Z,68.6
2022-12-19T10:13:29.548Z,63.4
2022-12-19T10:14:45.669Z,63.9
2022-12-19T10:16:02.774Z,68.3
2022-12-19T10:17:19.879Z,67.9
2022-12-19T10:18:36.984Z,68.6
2022-12-19T10:19:54.089Z,66.5
2022-12-19T10:21:11.194Z,72.8
2022-12-19T10:22:28.299Z,66.2
2022-12-19T10:23:44.426Z,66.7
2022-12-19T10:25:00.547Z,65.4
2022-12-19T10:26:17.651Z,60.7
2022-12-19T10:27:33.778Z,69.2
2022-12-19T10:28:49.899Z,67.9
2022-12-19T10:30:07.004Z,62.5
2022-12-19T10:31:24.109Z,65.7
2022-12-19T10:32:41.214Z,64.2
2022-12-19T10:33:58.319Z,72.5
2022-12-19T10:35:15.424Z,64.1
2022-12-19T10:36:32.529Z,60.4
2022-12-19T10:37:49.634Z,70.5
2022-12-19T10:39:06.739Z,72.1
2022-12-19T10:40:23.844Z,65.9
2022-12-19T10:41:40.949Z,63.6
2022-12-19T10:42:58.054Z,68.8
2022-12-19T10:44:15.159Z,65.5
2022-12-19T10:45:31.280Z,71
2022-12-19T10:46:48.385Z,65.4
2022-12-19T10:48:05.490Z,61.8
2022-12-19T10:49:22.595Z,67
2022-12-19T10:50:39.700Z,62
2022-12-19T10:51:56.805Z,71
2022-12-19T10:53:13.909Z,68.9
2022-12-19T10:54:30.036Z,62.1
2022-12-19T10:55:46.156Z,64.7
2022-12-19T10:57:03.261Z,63.1
2022-12-19T10:58:20.366Z,67.1
2022-12-19T10:59:36.492Z,69.7
2022-12-19T11:00:52.613Z,63.1
2022-12-19T11:02:09.718Z,77.9
2022-12-19T11:03:26.821Z,79.9
2022-12-19T11:04:43.926Z,65.9
2022-12-19T11:06:01.030Z,76
2022-12-19T11:07:18.135Z,62.3
2022-12-19T11:08:35.240Z,67
2022-12-19T11:09:52.345Z,61
2022-12-19T11:11:09.450Z,65.2
2022-12-19T11:12:26.555Z,62.8
2022-12-19T11:13:43.659Z,66.5
2022-12-19T11:15:00.764Z,62.6
2022-12-19T11:16:17.869Z,59.4
2022-12-19T11:17:33.990Z,65.4
2022-12-19T11:18:51.094Z,61
2022-12-19T11:20:08.199Z,67.5
2022-12-19T11:21:25.304Z,64.9
2022-12-19T11:22:42.408Z,67
2022-12-19T11:23:59.514Z,70.4
2022-12-19T11:25:16.618Z,62.3
2022-12-19T11:26:32.742Z,69.1
2022-12-19T11:27:48.863Z,67
2022-12-19T11:29:04.999Z,73.1
2022-12-19T11:30:21.120Z,68.9
2022-12-19T11:31:38.224Z,68.9
2022-12-19T11:32:55.327Z,67.8
2022-12-19T11:34:12.431Z,66.7
2022-12-19T11:35:29.536Z,60.7
2022-12-19T11:36:46.641Z,65.5
2022-12-19T11:38:03.745Z,70.5
2022-12-19T11:39:20.850Z,64.4
2022-12-19T11:40:37.955Z,64.6
2022-12-19T11:41:55.059Z,62.3
2022-12-19T11:43:12.164Z,59.9
2022-12-19T11:44:29.269Z,64.6
2022-12-19T11:45:46.373Z,66.5
2022-12-19T11:47:02.494Z,67.5
2022-12-19T11:48:19.599Z,64.1
2022-12-19T11:49:36.703Z,69.9
2022-12-19T11:50:53.808Z,68.8
2022-12-19T11:52:10.913Z,67.9
2022-12-19T11:53:28.018Z,64.9
2022-12-19T11:54:45.122Z,67
2022-12-19T11:56:01.248Z,70
2022-12-19T11:57:17.369Z,71.3
2022-12-19T11:58:34.473Z,62.3
2022-12-19T11:59:50.599Z,64.2
2022-12-19T12:01:06.720Z,60.7
2022-12-19T12:02:23.825Z,63.3
2022-12-19T12:03:40.929Z,65.4
2022-12-19T12:04:58.034Z,60.5
2022-12-19T12:06:15.139Z,66.3
2022-12-19T12:07:32.244Z,65.7
2022-12-19T12:08:49.348Z,65.5
2022-12-19T12:10:06.453Z,67.3
2022-12-19T12:11:23.557Z,61.2
2022-12-19T12:12:40.662Z,65.4
2022-12-19T12:13:57.767Z,67
2022-12-19T12:15:14.872Z,67
2022-12-19T12:16:31.977Z,63.9
2022-12-19T12:17:48.098Z,63.1
2022-12-19T12:19:05.202Z,62.6
2022-12-19T12:20:22.307Z,62
2022-12-19T12:21:39.411Z,63.8
2022-12-19T12:22:56.516Z,68.1
2022-12-19T12:24:13.621Z,64.7
2022-12-19T12:25:30.725Z,70.2
2022-12-19T12:26:46.851Z,68.8
2022-12-19T12:28:03.956Z,63.9
2022-12-19T12:29:20.077Z,62.8
2022-12-19T12:30:37.182Z,57.2
2022-12-19T12:31:53.308Z,62.5
2022-12-19T12:33:09.429Z,65.4
2022-12-19T12:34:26.533Z,64.6
2022-12-19T12:35:43.638Z,69.6
2022-12-19T12:37:00.743Z,68.3
2022-12-19T12:38:17.847Z,69.7
2022-12-19T12:39:34.952Z,66.7
2022-12-19T12:40:52.057Z,64.4
2022-12-19T12:42:09.161Z,64.4
2022-12-19T12:43:26.266Z,65.5
2022-12-19T12:44:43.371Z,67.8
2022-12-19T12:46:00.476Z,69.7
2022-12-19T12:47:17.580Z,67
2022-12-19T12:48:34.685Z,63.1
2022-12-19T12:49:50.806Z,65.2
2022-12-19T12:51:07.910Z,64.1
2022-12-19T12:52:25.015Z,68.6
2022-12-19T12:53:42.120Z,58
2022-12-19T12:54:59.224Z,63.4
2022-12-19T12:56:16.329Z,71.8
2022-12-19T12:57:33.434Z,61.2
2022-12-19T12:58:49.560Z,67
2022-12-19T13:00:05.681Z,70.7
2022-12-19T13:01:21.806Z,68.9
2022-12-19T13:02:37.927Z,67.9
2022-12-19T13:03:55.032Z,64.6
2022-12-19T13:05:12.137Z,66
2022-12-19T13:06:29.241Z,66.7
2022-12-19T13:07:46.346Z,63.9
2022-12-19T13:09:03.451Z,64.9
2022-12-19T13:10:20.556Z,68.9
2022-12-19T13:11:37.660Z,62.8
2022-12-19T13:12:54.765Z,62.1
2022-12-19T13:14:11.870Z,68.9
2022-12-19T13:15:28.974Z,67.9
2022-12-19T13:16:46.079Z,67.6
2022-12-19T13:18:03.184Z,63.8
2022-12-19T13:19:19.304Z,62.8
2022-12-19T13:20:36.409Z,65.9
2022-12-19T13:21:53.514Z,65.4
2022-12-19T13:23:10.619Z,68.8
2022-12-19T13:24:27.723Z,61.2
2022-12-19T13:25:44.828Z,72.3
2022-12-19T13:27:01.932Z,60.7
2022-12-19T13:28:18.058Z,61.7
2022-12-19T13:29:34.179Z,68.6
2022-12-19T13:30:51.284Z,67.5
2022-12-19T13:32:08.389Z,62.1
2022-12-19T13:33:24.514Z,66.7
2022-12-19T13:34:40.635Z,64.9
2022-12-19T13:35:57.740Z,63.9
2022-12-19T13:37:14.845Z,68.3
2022-12-19T13:38:31.951Z,68.1
2022-12-19T13:39:49.055Z,69.9
2022-12-19T13:41:06.160Z,62.1
2022-12-19T13:42:23.265Z,65
2022-12-19T13:43:40.369Z,62.3
2022-12-19T13:44:57.474Z,66.5
2022-12-19T13:46:14.579Z,64.6
2022-12-19T13:47:31.684Z,64.4
2022-12-19T13:48:48.788Z,63.4
2022-12-19T13:50:05.893Z,68.4
2022-12-19T13:51:22.014Z,63.6
2022-12-19T13:52:39.118Z,65.4
2022-12-19T13:53:56.223Z,67
2022-12-19T13:55:13.329Z,66.7
2022-12-19T13:56:30.433Z,64.7
2022-12-19T13:57:47.538Z,65.2
2022-12-19T13:59:04.643Z,64.1
2022-12-19T14:00:20.769Z,66.2
2022-12-19T14:01:36.890Z,67.9
2022-12-19T14:02:53.016Z,66.2
2022-12-19T14:04:09.137Z,69.1
2022-12-19T14:05:26.241Z,68.9
2022-12-19T14:06:43.346Z,65.9
2022-12-19T14:08:00.451Z,69.4
2022-12-19T14:09:17.556Z,64.6
2022-12-19T14:10:34.660Z,64.9
2022-12-19T14:11:51.765Z,63.6
2022-12-19T14:13:08.870Z,63.6
2022-12-19T14:14:25.975Z,68.9
2022-12-19T14:15:43.080Z,70.5
2022-12-19T14:17:00.184Z,68.3
2022-12-19T14:18:17.289Z,65.4
2022-12-19T14:19:34.394Z,66.3
2022-12-19T14:20:50.515Z,69.7
2022-12-19T14:22:07.619Z,70.2
2022-12-19T14:23:24.724Z,64.7
2022-12-19T14:24:41.829Z,64.4
2022-12-19T14:25:58.934Z,69.1
2022-12-19T14:27:16.039Z,65.9
2022-12-19T14:28:33.143Z,61.2
2022-12-19T14:29:50.248Z,66.5
2022-12-19T14:31:06.374Z,64.4
2022-12-19T14:32:22.495Z,66.7
2022-12-19T14:33:39.600Z,67.5
2022-12-19T14:34:56.705Z,69.7
2022-12-19T14:36:13.810Z,66.3
2022-12-19T14:37:30.915Z,66
2022-12-19T14:38:48.020Z,79.5
2022-12-19T14:40:05.125Z,69.9
2022-12-19T14:41:22.230Z,64.9
2022-12-19T14:42:39.334Z,65.5
2022-12-19T14:43:56.439Z,65.9
2022-12-19T14:45:13.544Z,60.7
2022-12-19T14:46:30.649Z,62
2022-12-19T14:47:47.754Z,63.9
2022-12-19T14:49:03.875Z,65.4
2022-12-19T14:50:20.980Z,63.4
2022-12-19T14:51:38.084Z,63.9
2022-12-19T14:52:55.189Z,63.1
2022-12-19T14:54:12.294Z,61.2
2022-12-19T14:55:29.399Z,63
2022-12-19T14:56:46.504Z,64.6
2022-12-19T14:58:02.630Z,62.8
2022-12-19T14:59:18.751Z,67
2022-12-19T15:00:35.856Z,62.6
2022-12-19T15:01:51.982Z,63.8
2022-12-19T15:03:08.103Z,61.2
2022-12-19T15:04:25.208Z,67.8
2022-12-19T15:05:42.313Z,65.5
2022-12-19T15:06:59.418Z,61.2
2022-12-19T15:08:16.523Z,64.2
2022-12-19T15:09:33.628Z,65.4
2022-12-19T15:10:50.733Z,60.4
2022-12-19T15:12:07.838Z,65
2022-12-19T15:13:24.943Z,60.2
2022-12-19T15:14:42.048Z,61.7
2022-12-19T15:15:59.153Z,60.2
2022-12-19T15:17:16.258Z,63
2022-12-19T15:18:33.363Z,65
2022-12-19T15:19:49.484Z,67
2022-12-19T15:21:06.589Z,64.6
2022-12-19T15:22:23.694Z,64.7
2022-12-19T15:23:40.799Z,64.9
2022-12-19T15:24:57.904Z,67
2022-12-19T15:26:15.009Z,64.1
2022-12-19T15:27:32.114Z,68.9
2022-12-19T15:28:48.240Z,65.9
2022-12-19T15:30:04.361Z,74.6
2022-12-19T15:31:20.488Z,68.3
2022-12-19T15:32:36.609Z,61.8
2022-12-19T15:33:53.714Z,65.9
2022-12-19T15:35:10.819Z,63.9
2022-12-19T15:36:27.924Z,70.4
2022-12-19T15:37:45.029Z,68.8
2022-12-19T15:39:02.134Z,63.4
2022-12-19T15:40:19.238Z,65.9
2022-12-19T15:41:36.343Z,60.1
2022-12-19T15:42:53.449Z,65.2
2022-12-19T15:44:10.554Z,65.4
2022-12-19T15:45:27.659Z,64.7
2022-12-19T15:46:43.780Z,64.6
2022-12-19T15:48:00.885Z,62
2022-12-19T15:49:17.990Z,64.7
2022-12-19T15:50:35.095Z,66.5
2022-12-19T15:51:52.200Z,66.2
2022-12-19T15:53:09.304Z,67.6
2022-12-19T15:54:26.410Z,66.7
2022-12-19T15:55:43.515Z,59.7
2022-12-19T15:57:00.620Z,61.3
2022-12-19T15:58:16.746Z,73.6
2022-12-19T15:59:32.867Z,62.5
2022-12-19T16:00:48.993Z,67.5
2022-12-19T16:02:05.114Z,69.4
2022-12-19T16:03:22.219Z,64.9
2022-12-19T16:04:39.324Z,61.5
2022-12-19T16:05:56.429Z,66
2022-12-19T16:07:13.534Z,64.9
2022-12-19T16:08:30.639Z,60.9
2022-12-19T16:09:47.744Z,63.4
2022-12-19T16:11:04.849Z,60.1
2022-12-19T16:12:21.953Z,64.9
2022-12-19T16:13:39.058Z,70.4
2022-12-19T16:14:56.163Z,66
2022-12-19T16:16:13.268Z,69.4
2022-12-19T16:17:30.373Z,64.9
2022-12-19T16:18:46.494Z,62.3
2022-12-19T16:20:03.599Z,65.9
2022-12-19T16:21:20.704Z,64.1
2022-12-19T16:22:37.809Z,65.2
2022-12-19T16:23:54.914Z,65.7
2022-12-19T16:25:12.019Z,69.1
2022-12-19T16:26:29.124Z,62.6
2022-12-19T16:27:45.251Z,62.3
2022-12-19T16:29:01.372Z,59.7
2022-12-19T16:30:17.498Z,63.1
2022-12-19T16:31:33.619Z,67
2022-12-19T16:32:50.725Z,59.7
2022-12-19T16:34:07.830Z,67
2022-12-19T16:35:24.935Z,63.8
2022-12-19T16:36:42.040Z,64.7
2022-12-19T16:37:59.145Z,64.7
2022-12-19T16:39:16.250Z,67.9
2022-12-19T16:40:33.355Z,61.2
2022-12-19T16:41:50.460Z,59.9
2022-12-19T16:43:07.565Z,59.6
2022-12-19T16:44:24.671Z,63.4
2022-12-19T16:45:41.776Z,64.1
2022-12-19T16:46:58.881Z,69.9
2022-12-19T16:48:15.002Z,64.9
2022-12-19T16:49:32.107Z,69.1
2022-12-19T16:50:49.212Z,67.1
2022-12-19T16:52:06.317Z,61.8
2022-12-19T16:53:23.422Z,59.4
2022-12-19T16:54:40.527Z,66
2022-12-19T16:55:57.632Z,61.2
2022-12-19T16:57:13.758Z,70.5
2022-12-19T16:58:29.879Z,67.3
2022-12-19T16:59:46.006Z,63.9
2022-12-19T17:01:02.127Z,62.6
2022-12-19T17:02:19.232Z,78.3
2022-12-19T17:03:36.337Z,78.4
2022-12-19T17:04:53.442Z,62.1
2022-12-19T17:06:10.547Z,71.3
2022-12-19T17:07:27.652Z,67.1
2022-12-19T17:08:44.756Z,65.4
2022-12-19T17:10:01.861Z,63.9
2022-12-19T17:11:18.966Z,64.1
2022-12-19T17:12:36.071Z,62.5
2022-12-19T17:13:53.176Z,62.8
2022-12-19T17:15:10.281Z,65.2
2022-12-19T17:16:27.386Z,57.2
2022-12-19T17:17:43.507Z,68.6